sensor_id;sensor_type;location;lat;lon;timestamp;temperature;humidity
418;DHT22;49;48.530;9.200;2024-01-27T00:00:27;13.60;19.60
418;DHT22;49;48.530;9.200;2024-01-27T00:02:55;13.30;15.00
418;DHT22;49;48.530;9.200;2024-01-27T00:05:22;12.80;15.10
418;DHT22;49;48.530;9.200;2024-01-27T00:07:49;11.60;13.60
418;DHT22;49;48.530;9.200;2024-01-27T00:10:16;10.90;18.60
418;DHT22;49;48.530;9.200;2024-01-27T00:12:43;10.60;16.20
418;DHT22;49;48.530;9.200;2024-01-27T00:15:09;10.90;26.50
418;DHT22;49;48.530;9.200;2024-01-27T00:17:36;11.50;26.60
418;DHT22;49;48.530;9.200;2024-01-27T00:20:06;11.40;18.00
418;DHT22;49;48.530;9.200;2024-01-27T00:22:33;11.60;22.10
418;DHT22;49;48.530;9.200;2024-01-27T00:25:00;11.20;15.90
418;DHT22;49;48.530;9.200;2024-01-27T00:27:27;10.50;15.70
418;DHT22;49;48.530;9.200;2024-01-27T00:29:54;10.30;27.60
418;DHT22;49;48.530;9.200;2024-01-27T00:32:20;10.50;18.10
418;DHT22;49;48.530;9.200;2024-01-27T00:34:47;10.80;21.50
418;DHT22;49;48.530;9.200;2024-01-27T00:37:16;11.00;23.60
418;DHT22;49;48.530;9.200;2024-01-27T00:39:43;11.20;23.80
418;DHT22;49;48.530;9.200;2024-01-27T00:42:11;10.90;16.90
418;DHT22;49;48.530;9.200;2024-01-27T00:44:37;10.50;16.30
418;DHT22;49;48.530;9.200;2024-01-27T00:47:04;10.60;21.40
418;DHT22;49;48.530;9.200;2024-01-27T00:49:31;10.20;18.50
418;DHT22;49;48.530;9.200;2024-01-27T00:51:58;10.00;27.70
418;DHT22;49;48.530;9.200;2024-01-27T00:54:27;10.10;19.10
418;DHT22;49;48.530;9.200;2024-01-27T00:56:53;10.50;27.00
418;DHT22;49;48.530;9.200;2024-01-27T00:59:20;11.20;28.70
418;DHT22;49;48.530;9.200;2024-01-27T01:01:47;11.40;25.10
418;DHT22;49;48.530;9.200;2024-01-27T01:04:15;11.10;24.80
418;DHT22;49;48.530;9.200;2024-01-27T01:06:42;10.50;17.40
418;DHT22;49;48.530;9.200;2024-01-27T01:09:08;9.90;18.50
418;DHT22;49;48.530;9.200;2024-01-27T01:11:37;9.30;18.70
418;DHT22;49;48.530;9.200;2024-01-27T01:14:04;9.40;23.30
418;DHT22;49;48.530;9.200;2024-01-27T01:16:31;9.10;26.40
418;DHT22;49;48.530;9.200;2024-01-27T01:18:58;9.20;21.30
418;DHT22;49;48.530;9.200;2024-01-27T01:21:25;9.20;35.70
418;DHT22;49;48.530;9.200;2024-01-27T01:23:52;9.80;28.00
418;DHT22;49;48.530;9.200;2024-01-27T01:26:19;9.50;22.50
418;DHT22;49;48.530;9.200;2024-01-27T01:28:47;9.00;24.80
418;DHT22;49;48.530;9.200;2024-01-27T01:31:14;9.00;22.70
418;DHT22;49;48.530;9.200;2024-01-27T01:33:41;8.80;30.60
418;DHT22;49;48.530;9.200;2024-01-27T01:36:08;8.70;23.60
418;DHT22;49;48.530;9.200;2024-01-27T01:38:35;9.50;35.50
418;DHT22;49;48.530;9.200;2024-01-27T01:41:02;9.60;23.50
418;DHT22;49;48.530;9.200;2024-01-27T01:43:29;8.90;25.10
418;DHT22;49;48.530;9.200;2024-01-27T01:45:57;9.20;33.70
418;DHT22;49;48.530;9.200;2024-01-27T01:48:24;9.10;21.90
418;DHT22;49;48.530;9.200;2024-01-27T01:50:51;9.00;22.70
418;DHT22;49;48.530;9.200;2024-01-27T01:53:18;8.90;33.30
418;DHT22;49;48.530;9.200;2024-01-27T01:55:45;9.10;24.70
418;DHT22;49;48.530;9.200;2024-01-27T01:58:12;8.70;22.80
418;DHT22;49;48.530;9.200;2024-01-27T02:00:39;9.40;34.30
418;DHT22;49;48.530;9.200;2024-01-27T02:03:11;9.50;36.00
418;DHT22;49;48.530;9.200;2024-01-27T02:05:38;9.50;20.20
418;DHT22;49;48.530;9.200;2024-01-27T02:08:05;8.90;21.70
418;DHT22;49;48.530;9.200;2024-01-27T02:10:34;8.50;24.70
418;DHT22;49;48.530;9.200;2024-01-27T02:13:03;8.90;31.60
418;DHT22;49;48.530;9.200;2024-01-27T02:18:05;8.20;25.90
418;DHT22;49;48.530;9.200;2024-01-27T02:20:34;8.10;22.80
418;DHT22;49;48.530;9.200;2024-01-27T02:23:00;7.70;24.40
418;DHT22;49;48.530;9.200;2024-01-27T02:25:31;7.70;24.50
418;DHT22;49;48.530;9.200;2024-01-27T02:27:59;7.70;29.90
418;DHT22;49;48.530;9.200;2024-01-27T02:30:26;8.10;25.70
418;DHT22;49;48.530;9.200;2024-01-27T02:32:55;7.80;24.10
418;DHT22;49;48.530;9.200;2024-01-27T02:35:21;7.50;25.60
418;DHT22;49;48.530;9.200;2024-01-27T02:37:48;7.30;26.10
418;DHT22;49;48.530;9.200;2024-01-27T02:40:16;7.20;25.60
418;DHT22;49;48.530;9.200;2024-01-27T02:42:44;7.10;30.70
418;DHT22;49;48.530;9.200;2024-01-27T02:45:11;7.50;48.40
418;DHT22;49;48.530;9.200;2024-01-27T02:47:38;7.50;27.80
418;DHT22;49;48.530;9.200;2024-01-27T02:50:06;7.80;43.90
418;DHT22;49;48.530;9.200;2024-01-27T02:52:33;7.80;40.50
418;DHT22;49;48.530;9.200;2024-01-27T02:55:00;8.50;57.30
418;DHT22;49;48.530;9.200;2024-01-27T02:57:27;8.40;25.00
418;DHT22;49;48.530;9.200;2024-01-27T02:59:55;8.10;24.80
418;DHT22;49;48.530;9.200;2024-01-27T03:02:22;7.70;29.70
418;DHT22;49;48.530;9.200;2024-01-27T03:04:49;8.10;25.10
418;DHT22;49;48.530;9.200;2024-01-27T03:07:16;8.00;43.20
418;DHT22;49;48.530;9.200;2024-01-27T03:09:42;8.50;37.80
418;DHT22;49;48.530;9.200;2024-01-27T03:12:10;8.60;28.50
418;DHT22;49;48.530;9.200;2024-01-27T03:14:37;8.60;26.20
418;DHT22;49;48.530;9.200;2024-01-27T03:17:05;8.10;22.40
418;DHT22;49;48.530;9.200;2024-01-27T03:19:32;8.10;31.90
418;DHT22;49;48.530;9.200;2024-01-27T03:21:59;8.60;44.20
418;DHT22;49;48.530;9.200;2024-01-27T03:24:26;8.20;22.50
418;DHT22;49;48.530;9.200;2024-01-27T03:26:53;8.30;25.10
418;DHT22;49;48.530;9.200;2024-01-27T03:29:20;7.80;24.30
418;DHT22;49;48.530;9.200;2024-01-27T03:31:47;7.40;23.70
418;DHT22;49;48.530;9.200;2024-01-27T03:34:16;8.00;62.40
418;DHT22;49;48.530;9.200;2024-01-27T03:36:47;8.50;30.50
418;DHT22;49;48.530;9.200;2024-01-27T03:39:14;8.10;25.20
418;DHT22;49;48.530;9.200;2024-01-27T03:41:41;7.70;25.30
418;DHT22;49;48.530;9.200;2024-01-27T03:44:08;7.20;25.80
418;DHT22;49;48.530;9.200;2024-01-27T03:46:35;7.20;26.60
418;DHT22;49;48.530;9.200;2024-01-27T03:49:04;6.90;27.20
418;DHT22;49;48.530;9.200;2024-01-27T03:51:32;7.00;33.00
418;DHT22;49;48.530;9.200;2024-01-27T03:53:59;6.90;26.60
418;DHT22;49;48.530;9.200;2024-01-27T03:56:26;7.00;39.10
418;DHT22;49;48.530;9.200;2024-01-27T03:58:53;7.30;31.10
418;DHT22;49;48.530;9.200;2024-01-27T04:01:20;7.10;25.80
418;DHT22;49;48.530;9.200;2024-01-27T04:03:49;6.90;25.90
418;DHT22;49;48.530;9.200;2024-01-27T04:06:17;6.90;26.70
418;DHT22;49;48.530;9.200;2024-01-27T04:08:45;6.90;27.50
418;DHT22;49;48.530;9.200;2024-01-27T04:11:19;7.10;46.60
418;DHT22;49;48.530;9.200;2024-01-27T04:13:48;7.40;35.80
418;DHT22;49;48.530;9.200;2024-01-27T04:16:15;7.60;26.30
418;DHT22;49;48.530;9.200;2024-01-27T04:18:42;7.50;25.90
418;DHT22;49;48.530;9.200;2024-01-27T04:21:08;7.40;26.80
418;DHT22;49;48.530;9.200;2024-01-27T04:23:35;7.30;25.50
418;DHT22;49;48.530;9.200;2024-01-27T04:26:04;6.90;25.20
418;DHT22;49;48.530;9.200;2024-01-27T04:28:32;6.90;33.80
418;DHT22;49;48.530;9.200;2024-01-27T04:30:58;7.10;27.20
418;DHT22;49;48.530;9.200;2024-01-27T04:33:25;7.00;27.10
418;DHT22;49;48.530;9.200;2024-01-27T04:35:53;7.00;26.70
418;DHT22;49;48.530;9.200;2024-01-27T04:38:20;6.70;26.40
418;DHT22;49;48.530;9.200;2024-01-27T04:40:47;6.40;26.40
418;DHT22;49;48.530;9.200;2024-01-27T04:43:16;6.30;27.00
418;DHT22;49;48.530;9.200;2024-01-27T04:45:43;6.20;26.60
418;DHT22;49;48.530;9.200;2024-01-27T04:48:10;6.20;27.20
418;DHT22;49;48.530;9.200;2024-01-27T04:50:37;6.20;27.00
418;DHT22;49;48.530;9.200;2024-01-27T04:53:04;6.00;28.00
418;DHT22;49;48.530;9.200;2024-01-27T04:55:32;6.20;28.20
418;DHT22;49;48.530;9.200;2024-01-27T04:57:59;6.10;29.60
418;DHT22;49;48.530;9.200;2024-01-27T05:00:27;6.30;29.40
418;DHT22;49;48.530;9.200;2024-01-27T05:02:54;6.30;28.50
418;DHT22;49;48.530;9.200;2024-01-27T05:05:22;6.10;28.00
418;DHT22;49;48.530;9.200;2024-01-27T05:07:49;6.30;37.30
418;DHT22;49;48.530;9.200;2024-01-27T05:10:16;6.20;29.40
418;DHT22;49;48.530;9.200;2024-01-27T05:12:43;6.80;50.20
418;DHT22;49;48.530;9.200;2024-01-27T05:15:10;7.10;27.50
418;DHT22;49;48.530;9.200;2024-01-27T05:17:38;7.40;29.70
418;DHT22;49;48.530;9.200;2024-01-27T05:20:07;7.50;26.60
418;DHT22;49;48.530;9.200;2024-01-27T05:22:34;7.80;38.10
418;DHT22;49;48.530;9.200;2024-01-27T05:25:01;8.20;43.00
418;DHT22;49;48.530;9.200;2024-01-27T05:27:28;9.00;41.40
418;DHT22;49;48.530;9.200;2024-01-27T05:29:55;8.70;21.80
418;DHT22;49;48.530;9.200;2024-01-27T05:32:22;8.60;28.60
418;DHT22;49;48.530;9.200;2024-01-27T05:34:50;8.40;25.70
418;DHT22;49;48.530;9.200;2024-01-27T05:37:17;7.90;21.10
418;DHT22;49;48.530;9.200;2024-01-27T05:39:44;7.50;37.00
418;DHT22;49;48.530;9.200;2024-01-27T05:42:11;8.30;28.30
418;DHT22;49;48.530;9.200;2024-01-27T05:44:37;8.10;26.60
418;DHT22;49;48.530;9.200;2024-01-27T05:47:06;7.90;22.60
418;DHT22;49;48.530;9.200;2024-01-27T05:49:33;7.80;29.20
418;DHT22;49;48.530;9.200;2024-01-27T05:52:01;8.10;27.20
418;DHT22;49;48.530;9.200;2024-01-27T05:54:27;8.80;36.60
418;DHT22;49;48.530;9.200;2024-01-27T05:56:54;8.90;28.90
418;DHT22;49;48.530;9.200;2024-01-27T05:59:21;9.00;36.20
418;DHT22;49;48.530;9.200;2024-01-27T06:01:48;9.10;23.10
418;DHT22;49;48.530;9.200;2024-01-27T06:04:15;8.60;21.30
418;DHT22;49;48.530;9.200;2024-01-27T06:06:42;8.90;27.80
418;DHT22;49;48.530;9.200;2024-01-27T06:09:10;8.80;25.40
418;DHT22;49;48.530;9.200;2024-01-27T06:11:37;8.70;22.80
418;DHT22;49;48.530;9.200;2024-01-27T06:14:04;9.00;26.80
418;DHT22;49;48.530;9.200;2024-01-27T06:16:32;9.10;20.00
418;DHT22;49;48.530;9.200;2024-01-27T06:19:00;8.60;24.50
418;DHT22;49;48.530;9.200;2024-01-27T06:21:27;8.30;24.50
418;DHT22;49;48.530;9.200;2024-01-27T06:23:54;8.30;30.40
418;DHT22;49;48.530;9.200;2024-01-27T06:26:22;8.50;21.70
418;DHT22;49;48.530;9.200;2024-01-27T06:28:49;8.50;25.30
418;DHT22;49;48.530;9.200;2024-01-27T06:31:16;9.10;33.40
418;DHT22;49;48.530;9.200;2024-01-27T06:33:43;8.90;20.00
418;DHT22;49;48.530;9.200;2024-01-27T06:36:10;8.20;21.30
418;DHT22;49;48.530;9.200;2024-01-27T06:38:37;8.80;30.00
418;DHT22;49;48.530;9.200;2024-01-27T06:41:04;9.10;32.30
418;DHT22;49;48.530;9.200;2024-01-27T06:43:32;9.20;23.40
418;DHT22;49;48.530;9.200;2024-01-27T06:45:59;9.10;23.10
418;DHT22;49;48.530;9.200;2024-01-27T06:48:26;9.30;25.20
418;DHT22;49;48.530;9.200;2024-01-27T06:50:53;9.90;30.60
418;DHT22;49;48.530;9.200;2024-01-27T06:53:20;10.00;22.60
418;DHT22;49;48.530;9.200;2024-01-27T06:55:47;9.60;22.20
418;DHT22;49;48.530;9.200;2024-01-27T06:58:13;9.20;21.30
418;DHT22;49;48.530;9.200;2024-01-27T07:00:42;9.30;25.00
418;DHT22;49;48.530;9.200;2024-01-27T07:03:10;9.20;20.80
418;DHT22;49;48.530;9.200;2024-01-27T07:05:37;9.00;20.50
418;DHT22;49;48.530;9.200;2024-01-27T07:08:09;9.70;26.50
418;DHT22;49;48.530;9.200;2024-01-27T07:10:36;9.60;18.90
418;DHT22;49;48.530;9.200;2024-01-27T07:13:05;9.50;26.40
418;DHT22;49;48.530;9.200;2024-01-27T07:15:32;10.00;20.90
418;DHT22;49;48.530;9.200;2024-01-27T07:18:00;10.00;24.80
418;DHT22;49;48.530;9.200;2024-01-27T07:20:27;10.20;23.00
418;DHT22;49;48.530;9.200;2024-01-27T07:22:54;10.10;22.10
418;DHT22;49;48.530;9.200;2024-01-27T07:25:21;10.00;21.10
418;DHT22;49;48.530;9.200;2024-01-27T07:27:48;10.00;21.80
418;DHT22;49;48.530;9.200;2024-01-27T07:30:15;10.20;23.50
418;DHT22;49;48.530;9.200;2024-01-27T07:32:43;10.40;23.10
418;DHT22;49;48.530;9.200;2024-01-27T07:35:13;10.70;21.30
418;DHT22;49;48.530;9.200;2024-01-27T07:37:39;10.50;16.90
418;DHT22;49;48.530;9.200;2024-01-27T07:40:07;10.30;19.30
418;DHT22;49;48.530;9.200;2024-01-27T07:42:35;10.20;20.60
418;DHT22;49;48.530;9.200;2024-01-27T07:45:02;10.20;19.00
418;DHT22;49;48.530;9.200;2024-01-27T07:47:29;9.90;17.70
418;DHT22;49;48.530;9.200;2024-01-27T07:49:55;9.70;16.60
418;DHT22;49;48.530;9.200;2024-01-27T07:52:24;9.60;17.50
418;DHT22;49;48.530;9.200;2024-01-27T07:54:51;9.30;22.50
418;DHT22;49;48.530;9.200;2024-01-27T07:57:18;9.60;27.60
418;DHT22;49;48.530;9.200;2024-01-27T07:59:45;9.70;25.10
418;DHT22;49;48.530;9.200;2024-01-27T08:02:12;9.70;22.20
418;DHT22;49;48.530;9.200;2024-01-27T08:04:39;9.40;23.30
418;DHT22;49;48.530;9.200;2024-01-27T08:07:06;9.10;20.40
418;DHT22;49;48.530;9.200;2024-01-27T08:09:36;9.10;16.70
418;DHT22;49;48.530;9.200;2024-01-27T08:12:04;9.00;16.60
418;DHT22;49;48.530;9.200;2024-01-27T08:14:31;9.50;25.30
418;DHT22;49;48.530;9.200;2024-01-27T08:16:58;9.40;20.00
418;DHT22;49;48.530;9.200;2024-01-27T08:19:26;9.50;20.70
418;DHT22;49;48.530;9.200;2024-01-27T08:21:52;9.60;21.90
418;DHT22;49;48.530;9.200;2024-01-27T08:24:19;9.40;17.90
418;DHT22;49;48.530;9.200;2024-01-27T08:26:50;9.10;17.40
418;DHT22;49;48.530;9.200;2024-01-27T08:29:16;9.30;23.00
418;DHT22;49;48.530;9.200;2024-01-27T08:31:43;9.00;17.10
418;DHT22;49;48.530;9.200;2024-01-27T08:34:10;9.10;23.70
418;DHT22;49;48.530;9.200;2024-01-27T08:36:39;9.40;18.50
418;DHT22;49;48.530;9.200;2024-01-27T08:39:06;9.20;19.90
418;DHT22;49;48.530;9.200;2024-01-27T08:41:34;9.00;17.50
418;DHT22;49;48.530;9.200;2024-01-27T08:44:03;9.10;17.60
418;DHT22;49;48.530;9.200;2024-01-27T08:46:30;8.70;18.10
418;DHT22;49;48.530;9.200;2024-01-27T08:48:57;8.90;20.40
418;DHT22;49;48.530;9.200;2024-01-27T08:51:25;8.90;22.30
418;DHT22;49;48.530;9.200;2024-01-27T08:53:52;8.90;18.80
418;DHT22;49;48.530;9.200;2024-01-27T08:56:19;8.90;19.50
418;DHT22;49;48.530;9.200;2024-01-27T08:58:46;8.40;18.90
418;DHT22;49;48.530;9.200;2024-01-27T09:01:15;7.90;20.30
418;DHT22;49;48.530;9.200;2024-01-27T09:03:42;7.80;22.20
418;DHT22;49;48.530;9.200;2024-01-27T09:06:09;8.10;22.40
418;DHT22;49;48.530;9.200;2024-01-27T09:08:36;8.20;20.90
418;DHT22;49;48.530;9.200;2024-01-27T09:11:03;8.60;20.20
418;DHT22;49;48.530;9.200;2024-01-27T09:13:30;8.90;25.40
418;DHT22;49;48.530;9.200;2024-01-27T09:15:58;9.30;22.90
418;DHT22;49;48.530;9.200;2024-01-27T09:18:26;9.50;18.30
418;DHT22;49;48.530;9.200;2024-01-27T09:20:53;9.20;20.80
418;DHT22;49;48.530;9.200;2024-01-27T09:23:20;9.20;20.70
418;DHT22;49;48.530;9.200;2024-01-27T09:25:47;9.20;17.30
418;DHT22;49;48.530;9.200;2024-01-27T09:28:14;8.80;19.20
418;DHT22;49;48.530;9.200;2024-01-27T09:30:41;8.80;20.50
418;DHT22;49;48.530;9.200;2024-01-27T09:33:08;9.40;23.30
418;DHT22;49;48.530;9.200;2024-01-27T09:35:37;9.80;22.20
418;DHT22;49;48.530;9.200;2024-01-27T09:38:04;9.60;18.90
418;DHT22;49;48.530;9.200;2024-01-27T09:40:33;9.80;19.10
418;DHT22;49;48.530;9.200;2024-01-27T09:43:00;10.00;21.40
418;DHT22;49;48.530;9.200;2024-01-27T09:45:27;10.50;18.30
418;DHT22;49;48.530;9.200;2024-01-27T09:47:56;10.70;18.10
418;DHT22;49;48.530;9.200;2024-01-27T09:50:24;10.80;16.50
418;DHT22;49;48.530;9.200;2024-01-27T09:52:52;10.40;16.30
418;DHT22;49;48.530;9.200;2024-01-27T09:55:19;10.50;17.40
418;DHT22;49;48.530;9.200;2024-01-27T09:57:46;10.10;16.70
418;DHT22;49;48.530;9.200;2024-01-27T10:00:15;10.00;20.80
418;DHT22;49;48.530;9.200;2024-01-27T10:02:43;10.30;19.50
418;DHT22;49;48.530;9.200;2024-01-27T10:05:12;10.30;15.10
418;DHT22;49;48.530;9.200;2024-01-27T10:07:40;10.10;17.10
418;DHT22;49;48.530;9.200;2024-01-27T10:10:09;9.90;19.10
418;DHT22;49;48.530;9.200;2024-01-27T10:12:39;9.70;17.60
418;DHT22;49;48.530;9.200;2024-01-27T10:15:18;9.90;23.60
418;DHT22;49;48.530;9.200;2024-01-27T10:17:46;9.70;17.60
418;DHT22;49;48.530;9.200;2024-01-27T10:20:13;9.90;17.70
418;DHT22;49;48.530;9.200;2024-01-27T10:22:42;9.90;16.90
418;DHT22;49;48.530;9.200;2024-01-27T10:25:12;9.70;17.20
418;DHT22;49;48.530;9.200;2024-01-27T10:27:39;9.60;18.00
418;DHT22;49;48.530;9.200;2024-01-27T10:30:16;9.90;18.00
418;DHT22;49;48.530;9.200;2024-01-27T10:32:54;9.90;17.50
418;DHT22;49;48.530;9.200;2024-01-27T10:35:21;10.20;17.20
418;DHT22;49;48.530;9.200;2024-01-27T10:37:51;10.10;16.10
418;DHT22;49;48.530;9.200;2024-01-27T10:40:20;10.30;19.60
418;DHT22;49;48.530;9.200;2024-01-27T10:43:00;10.20;16.00
418;DHT22;49;48.530;9.200;2024-01-27T10:45:29;10.20;16.00
418;DHT22;49;48.530;9.200;2024-01-27T10:48:00;9.50;17.10
418;DHT22;49;48.530;9.200;2024-01-27T10:50:28;10.10;19.90
418;DHT22;49;48.530;9.200;2024-01-27T10:52:57;10.20;17.20
418;DHT22;49;48.530;9.200;2024-01-27T10:55:26;10.10;16.70
418;DHT22;49;48.530;9.200;2024-01-27T10:57:54;10.00;17.20
418;DHT22;49;48.530;9.200;2024-01-27T11:00:23;10.00;17.90
418;DHT22;49;48.530;9.200;2024-01-27T11:02:52;10.20;17.70
418;DHT22;49;48.530;9.200;2024-01-27T11:05:22;10.10;16.00
418;DHT22;49;48.530;9.200;2024-01-27T11:07:51;10.20;16.90
418;DHT22;49;48.530;9.200;2024-01-27T11:10:18;10.10;16.90
418;DHT22;49;48.530;9.200;2024-01-27T11:12:47;10.10;17.50
418;DHT22;49;48.530;9.200;2024-01-27T11:15:15;10.40;17.30
418;DHT22;49;48.530;9.200;2024-01-27T11:17:42;10.10;17.00
418;DHT22;49;48.530;9.200;2024-01-27T11:23:32;9.70;18.50
418;DHT22;49;48.530;9.200;2024-01-27T11:26:04;9.60;18.80
418;DHT22;49;48.530;9.200;2024-01-27T11:28:32;9.60;19.10
418;DHT22;49;48.530;9.200;2024-01-27T11:31:03;9.40;20.00
418;DHT22;49;48.530;9.200;2024-01-27T11:33:30;9.40;21.40
418;DHT22;49;48.530;9.200;2024-01-27T11:36:00;9.60;21.80
418;DHT22;49;48.530;9.200;2024-01-27T11:38:27;9.90;21.30
418;DHT22;49;48.530;9.200;2024-01-27T11:40:55;10.30;20.70
418;DHT22;49;48.530;9.200;2024-01-27T11:43:22;10.10;19.60
418;DHT22;49;48.530;9.200;2024-01-27T11:45:56;10.30;20.40
418;DHT22;49;48.530;9.200;2024-01-27T11:48:24;10.00;20.80
418;DHT22;49;48.530;9.200;2024-01-27T11:51:03;10.00;21.50
418;DHT22;49;48.530;9.200;2024-01-27T11:53:29;10.10;21.60
418;DHT22;49;48.530;9.200;2024-01-27T11:55:56;10.10;21.80
418;DHT22;49;48.530;9.200;2024-01-27T11:58:24;10.30;21.30
418;DHT22;49;48.530;9.200;2024-01-27T12:00:52;10.40;20.10
418;DHT22;49;48.530;9.200;2024-01-27T12:03:20;10.40;19.20
418;DHT22;49;48.530;9.200;2024-01-27T12:05:48;10.50;20.70
418;DHT22;49;48.530;9.200;2024-01-27T12:08:16;10.70;19.20
418;DHT22;49;48.530;9.200;2024-01-27T12:10:43;10.60;18.70
418;DHT22;49;48.530;9.200;2024-01-27T12:13:10;10.60;18.70
418;DHT22;49;48.530;9.200;2024-01-27T12:15:37;10.50;14.40
418;DHT22;49;48.530;9.200;2024-01-27T12:18:05;10.30;14.10
418;DHT22;49;48.530;9.200;2024-01-27T12:20:33;9.90;15.70
418;DHT22;49;48.530;9.200;2024-01-27T12:23:03;9.90;16.90
418;DHT22;49;48.530;9.200;2024-01-27T12:25:30;9.80;17.60
418;DHT22;49;48.530;9.200;2024-01-27T12:28:01;10.10;19.70
418;DHT22;49;48.530;9.200;2024-01-27T12:30:27;10.40;15.00
418;DHT22;49;48.530;9.200;2024-01-27T12:32:54;10.50;14.80
418;DHT22;49;48.530;9.200;2024-01-27T12:35:23;10.60;14.70
418;DHT22;49;48.530;9.200;2024-01-27T12:37:51;10.80;14.40
418;DHT22;49;48.530;9.200;2024-01-27T12:40:20;10.50;14.60
418;DHT22;49;48.530;9.200;2024-01-27T12:42:47;10.40;15.60
418;DHT22;49;48.530;9.200;2024-01-27T12:45:14;10.80;15.40
418;DHT22;49;48.530;9.200;2024-01-27T12:47:41;11.40;14.20
418;DHT22;49;48.530;9.200;2024-01-27T12:50:09;11.60;13.00
418;DHT22;49;48.530;9.200;2024-01-27T12:52:36;11.60;12.70
418;DHT22;49;48.530;9.200;2024-01-27T12:55:05;11.50;14.60
418;DHT22;49;48.530;9.200;2024-01-27T12:57:32;11.60;12.10
418;DHT22;49;48.530;9.200;2024-01-27T12:59:59;11.40;12.00
418;DHT22;49;48.530;9.200;2024-01-27T13:02:26;10.90;13.30
418;DHT22;49;48.530;9.200;2024-01-27T13:04:54;10.50;15.00
418;DHT22;49;48.530;9.200;2024-01-27T13:07:21;10.50;13.10
418;DHT22;49;48.530;9.200;2024-01-27T13:09:48;10.50;14.00
418;DHT22;49;48.530;9.200;2024-01-27T13:12:17;10.70;13.00
418;DHT22;49;48.530;9.200;2024-01-27T13:14:44;11.00;13.40
418;DHT22;49;48.530;9.200;2024-01-27T13:17:13;10.90;12.30
418;DHT22;49;48.530;9.200;2024-01-27T13:19:40;10.70;13.60
418;DHT22;49;48.530;9.200;2024-01-27T13:22:07;10.90;13.70
418;DHT22;49;48.530;9.200;2024-01-27T13:24:34;10.90;13.20
418;DHT22;49;48.530;9.200;2024-01-27T13:27:01;10.60;13.30
418;DHT22;49;48.530;9.200;2024-01-27T13:29:30;10.80;12.70
418;DHT22;49;48.530;9.200;2024-01-27T13:31:58;10.90;11.60
418;DHT22;49;48.530;9.200;2024-01-27T13:34:27;11.00;12.40
418;DHT22;49;48.530;9.200;2024-01-27T13:36:56;10.90;11.60
418;DHT22;49;48.530;9.200;2024-01-27T13:39:24;10.90;12.10
418;DHT22;49;48.530;9.200;2024-01-27T13:41:51;10.70;12.60
418;DHT22;49;48.530;9.200;2024-01-27T13:44:18;10.70;12.40
418;DHT22;49;48.530;9.200;2024-01-27T13:46:46;10.90;12.20
418;DHT22;49;48.530;9.200;2024-01-27T13:49:13;10.40;13.00
418;DHT22;49;48.530;9.200;2024-01-27T13:51:40;10.60;12.80
418;DHT22;49;48.530;9.200;2024-01-27T13:54:07;11.10;13.50
418;DHT22;49;48.530;9.200;2024-01-27T13:56:34;11.00;11.70
418;DHT22;49;48.530;9.200;2024-01-27T13:59:02;10.80;12.30
418;DHT22;49;48.530;9.200;2024-01-27T14:01:32;10.70;12.90
418;DHT22;49;48.530;9.200;2024-01-27T14:04:00;10.10;13.50
418;DHT22;49;48.530;9.200;2024-01-27T14:06:27;9.70;15.60
418;DHT22;49;48.530;9.200;2024-01-27T14:08:54;9.70;16.50
418;DHT22;49;48.530;9.200;2024-01-27T14:11:21;9.70;16.40
418;DHT22;49;48.530;9.200;2024-01-27T14:13:48;9.80;17.20
418;DHT22;49;48.530;9.200;2024-01-27T14:16:15;9.70;17.20
418;DHT22;49;48.530;9.200;2024-01-27T14:18:42;9.80;16.60
418;DHT22;49;48.530;9.200;2024-01-27T14:21:10;9.90;16.60
418;DHT22;49;48.530;9.200;2024-01-27T14:23:37;9.60;16.90
418;DHT22;49;48.530;9.200;2024-01-27T14:26:04;9.30;18.70
418;DHT22;49;48.530;9.200;2024-01-27T14:28:33;9.30;17.90
418;DHT22;49;48.530;9.200;2024-01-27T14:31:00;8.90;20.00
418;DHT22;49;48.530;9.200;2024-01-27T14:33:27;9.10;19.70
418;DHT22;49;48.530;9.200;2024-01-27T14:35:58;9.30;18.90
418;DHT22;49;48.530;9.200;2024-01-27T14:38:29;9.30;18.70
418;DHT22;49;48.530;9.200;2024-01-27T14:40:57;9.30;19.00
418;DHT22;49;48.530;9.200;2024-01-27T14:43:24;9.60;17.50
418;DHT22;49;48.530;9.200;2024-01-27T14:45:52;9.50;18.30
418;DHT22;49;48.530;9.200;2024-01-27T14:48:20;9.70;17.60
418;DHT22;49;48.530;9.200;2024-01-27T14:50:47;9.30;18.20
418;DHT22;49;48.530;9.200;2024-01-27T14:53:18;9.60;17.90
418;DHT22;49;48.530;9.200;2024-01-27T14:55:46;9.70;16.90
418;DHT22;49;48.530;9.200;2024-01-27T14:58:13;9.90;17.00
418;DHT22;49;48.530;9.200;2024-01-27T15:00:40;10.40;14.80
418;DHT22;49;48.530;9.200;2024-01-27T15:03:07;10.70;13.90
418;DHT22;49;48.530;9.200;2024-01-27T15:05:34;10.60;13.80
418;DHT22;49;48.530;9.200;2024-01-27T15:08:05;10.40;14.40
418;DHT22;49;48.530;9.200;2024-01-27T15:10:32;10.20;14.60
418;DHT22;49;48.530;9.200;2024-01-27T15:13:00;9.80;16.50
418;DHT22;49;48.530;9.200;2024-01-27T15:15:27;10.20;15.10
418;DHT22;49;48.530;9.200;2024-01-27T15:17:53;10.20;15.00
418;DHT22;49;48.530;9.200;2024-01-27T15:20:25;10.10;14.60
418;DHT22;49;48.530;9.200;2024-01-27T15:22:53;9.80;16.70
418;DHT22;49;48.530;9.200;2024-01-27T15:25:20;9.50;17.10
418;DHT22;49;48.530;9.200;2024-01-27T15:27:47;9.20;17.80
418;DHT22;49;48.530;9.200;2024-01-27T15:30:17;9.40;18.40
418;DHT22;49;48.530;9.200;2024-01-27T15:32:45;9.30;17.90
418;DHT22;49;48.530;9.200;2024-01-27T15:35:12;9.70;17.60
418;DHT22;49;48.530;9.200;2024-01-27T15:37:39;9.70;17.30
418;DHT22;49;48.530;9.200;2024-01-27T15:40:08;10.00;15.50
418;DHT22;49;48.530;9.200;2024-01-27T15:42:36;10.10;15.20
418;DHT22;49;48.530;9.200;2024-01-27T15:45:03;10.10;15.00
418;DHT22;49;48.530;9.200;2024-01-27T15:47:32;10.40;14.40
418;DHT22;49;48.530;9.200;2024-01-27T15:49:59;10.40;14.80
418;DHT22;49;48.530;9.200;2024-01-27T15:52:29;10.30;14.40
418;DHT22;49;48.530;9.200;2024-01-27T15:54:56;10.40;13.90
418;DHT22;49;48.530;9.200;2024-01-27T15:57:23;10.20;14.60
418;DHT22;49;48.530;9.200;2024-01-27T15:59:50;9.70;16.60
418;DHT22;49;48.530;9.200;2024-01-27T16:02:17;9.30;17.30
418;DHT22;49;48.530;9.200;2024-01-27T16:04:46;9.50;17.40
418;DHT22;49;48.530;9.200;2024-01-27T16:07:13;9.60;16.80
418;DHT22;49;48.530;9.200;2024-01-27T16:09:45;9.40;17.00
418;DHT22;49;48.530;9.200;2024-01-27T16:12:12;9.00;17.80
418;DHT22;49;48.530;9.200;2024-01-27T16:14:39;8.80;18.90
418;DHT22;49;48.530;9.200;2024-01-27T16:17:06;8.90;19.30
418;DHT22;49;48.530;9.200;2024-01-27T16:19:34;9.20;17.70
418;DHT22;49;48.530;9.200;2024-01-27T16:22:03;9.10;17.80
418;DHT22;49;48.530;9.200;2024-01-27T16:24:30;9.10;17.60
418;DHT22;49;48.530;9.200;2024-01-27T16:26:57;8.90;18.90
418;DHT22;49;48.530;9.200;2024-01-27T16:29:24;8.70;20.00
418;DHT22;49;48.530;9.200;2024-01-27T16:31:51;8.90;20.80
418;DHT22;49;48.530;9.200;2024-01-27T16:34:18;9.40;23.30
418;DHT22;49;48.530;9.200;2024-01-27T16:36:45;10.40;23.20
418;DHT22;49;48.530;9.200;2024-01-27T16:39:14;11.20;20.70
418;DHT22;49;48.530;9.200;2024-01-27T16:41:41;11.90;18.60
418;DHT22;49;48.530;9.200;2024-01-27T16:44:08;12.30;17.10
418;DHT22;49;48.530;9.200;2024-01-27T16:46:40;12.60;15.50
418;DHT22;49;48.530;9.200;2024-01-27T16:49:07;12.50;15.80
418;DHT22;49;48.530;9.200;2024-01-27T16:51:34;12.70;15.70
418;DHT22;49;48.530;9.200;2024-01-27T16:54:00;13.00;15.20
418;DHT22;49;48.530;9.200;2024-01-27T16:56:29;13.10;14.80
418;DHT22;49;48.530;9.200;2024-01-27T16:58:57;13.20;14.00
418;DHT22;49;48.530;9.200;2024-01-27T17:01:24;13.10;14.50
418;DHT22;49;48.530;9.200;2024-01-27T17:03:51;13.20;12.80
418;DHT22;49;48.530;9.200;2024-01-27T17:06:18;12.50;13.00
418;DHT22;49;48.530;9.200;2024-01-27T17:08:45;12.60;14.90
418;DHT22;49;48.530;9.200;2024-01-27T17:11:13;12.90;13.20